sensor_id;sensor_type;location;lat;lon;timestamp;temperature;humidity
71096;DHT22;58753;49.440;11.126;2022-07-06T00:05:24;16.50;61.88
71096;DHT22;58753;49.440;11.126;2022-07-06T00:07:50;16.45;61.65
71096;DHT22;58753;49.440;11.126;2022-07-06T00:10:15;16.45;61.84
71096;DHT22;58753;49.440;11.126;2022-07-06T00:12:41;16.49;62.04
71096;DHT22;58753;49.440;11.126;2022-07-06T00:28:32;16.73;61.77
71096;DHT22;58753;49.440;11.126;2022-07-06T00:30:57;16.71;61.24
71096;DHT22;58753;49.440;11.126;2022-07-06T00:33:23;16.73;61.36
71096;DHT22;58753;49.440;11.126;2022-07-06T00:35:48;16.76;61.12
71096;DHT22;58753;49.440;11.126;2022-07-06T00:38:14;16.81;61.05
71096;DHT22;58753;49.440;11.126;2022-07-06T00:40:39;16.83;60.85
71096;DHT22;58753;49.440;11.126;2022-07-06T00:43:05;16.88;60.69
71096;DHT22;58753;49.440;11.126;2022-07-06T00:45:30;16.91;60.38
71096;DHT22;58753;49.440;11.126;2022-07-06T00:47:56;17.01;60.26
71096;DHT22;58753;49.440;11.126;2022-07-06T00:50:21;17.17;59.51
71096;DHT22;58753;49.440;11.126;2022-07-06T00:55:18;17.35;58.07
71096;DHT22;58753;49.440;11.126;2022-07-06T00:57:44;17.41;57.72
71096;DHT22;58753;49.440;11.126;2022-07-06T01:00:11;17.46;57.35
71096;DHT22;58753;49.440;11.126;2022-07-06T01:02:37;17.49;57.29
71096;DHT22;58753;49.440;11.126;2022-07-06T01:05:07;17.54;57.23
71096;DHT22;58753;49.440;11.126;2022-07-06T01:07:33;17.54;57.20
71096;DHT22;58753;49.440;11.126;2022-07-06T01:09:59;17.56;57.01
71096;DHT22;58753;49.440;11.126;2022-07-06T01:12:24;17.58;57.00
71096;DHT22;58753;49.440;11.126;2022-07-06T01:14:50;17.65;56.83
71096;DHT22;58753;49.440;11.126;2022-07-06T01:17:17;17.69;56.54
71096;DHT22;58753;49.440;11.126;2022-07-06T01:19:43;17.69;56.06
71096;DHT22;58753;49.440;11.126;2022-07-06T01:22:09;17.72;55.95
71096;DHT22;58753;49.440;11.126;2022-07-06T01:24:36;17.74;55.78
71096;DHT22;58753;49.440;11.126;2022-07-06T01:27:05;17.71;55.62
71096;DHT22;58753;49.440;11.126;2022-07-06T01:40:15;17.68;55.76
71096;DHT22;58753;49.440;11.126;2022-07-06T01:42:40;17.65;55.87
71096;DHT22;58753;49.440;11.126;2022-07-06T01:45:06;17.66;55.83
71096;DHT22;58753;49.440;11.126;2022-07-06T01:47:32;17.61;55.96
71096;DHT22;58753;49.440;11.126;2022-07-06T01:49:59;17.58;56.05
71096;DHT22;58753;49.440;11.126;2022-07-06T01:52:25;17.59;56.15
71096;DHT22;58753;49.440;11.126;2022-07-06T01:54:50;17.56;56.18
71096;DHT22;58753;49.440;11.126;2022-07-06T01:57:16;17.49;56.37
71096;DHT22;58753;49.440;11.126;2022-07-06T01:59:41;17.49;56.56
71096;DHT22;58753;49.440;11.126;2022-07-06T02:02:06;17.44;56.28
71096;DHT22;58753;49.440;11.126;2022-07-06T02:04:32;17.39;56.43
71096;DHT22;58753;49.440;11.126;2022-07-06T02:06:57;17.32;56.69
71096;DHT22;58753;49.440;11.126;2022-07-06T02:09:22;17.24;57.40
71096;DHT22;58753;49.440;11.126;2022-07-06T02:11:48;17.18;57.77
71096;DHT22;58753;49.440;11.126;2022-07-06T02:14:13;17.10;58.32
71096;DHT22;58753;49.440;11.126;2022-07-06T02:16:39;17.01;58.93
71096;DHT22;58753;49.440;11.126;2022-07-06T02:19:05;16.90;59.20
71096;DHT22;58753;49.440;11.126;2022-07-06T02:21:30;16.77;59.64
71096;DHT22;58753;49.440;11.126;2022-07-06T02:23:56;16.63;60.28
71096;DHT22;58753;49.440;11.126;2022-07-06T02:26:21;16.53;60.63
71096;DHT22;58753;49.440;11.126;2022-07-06T02:31:11;16.33;61.49
71096;DHT22;58753;49.440;11.126;2022-07-06T02:33:38;16.26;61.91
71096;DHT22;58753;49.440;11.126;2022-07-06T02:36:04;16.20;62.16
71096;DHT22;58753;49.440;11.126;2022-07-06T02:38:29;16.16;62.58
71096;DHT22;58753;49.440;11.126;2022-07-06T02:40:54;16.12;63.11
71096;DHT22;58753;49.440;11.126;2022-07-06T02:43:20;16.10;63.38
71096;DHT22;58753;49.440;11.126;2022-07-06T02:45:45;16.05;63.27
71096;DHT22;58753;49.440;11.126;2022-07-06T02:48:11;16.08;63.49
71096;DHT22;58753;49.440;11.126;2022-07-06T02:50:36;16.01;63.62
71096;DHT22;58753;49.440;11.126;2022-07-06T02:58:57;15.91;64.63
71096;DHT22;58753;49.440;11.126;2022-07-06T03:01:22;15.85;64.57
71096;DHT22;58753;49.440;11.126;2022-07-06T03:03:48;15.82;64.78
71096;DHT22;58753;49.440;11.126;2022-07-06T03:06:13;15.75;65.07
71096;DHT22;58753;49.440;11.126;2022-07-06T03:08:38;15.69;65.38
71096;DHT22;58753;49.440;11.126;2022-07-06T03:11:04;15.64;65.80
71096;DHT22;58753;49.440;11.126;2022-07-06T03:13:29;15.57;65.93
71096;DHT22;58753;49.440;11.126;2022-07-06T03:15:55;15.51;66.64
71096;DHT22;58753;49.440;11.126;2022-07-06T03:18:21;15.48;66.60
71096;DHT22;58753;49.440;11.126;2022-07-06T03:23:12;15.34;67.17
71096;DHT22;58753;49.440;11.126;2022-07-06T03:25:37;15.30;67.34
71096;DHT22;58753;49.440;11.126;2022-07-06T03:28:03;15.24;67.61
71096;DHT22;58753;49.440;11.126;2022-07-06T03:30:28;15.20;67.81
71096;DHT22;58753;49.440;11.126;2022-07-06T03:32:53;15.17;68.52
71096;DHT22;58753;49.440;11.126;2022-07-06T03:37:44;15.13;68.23
71096;DHT22;58753;49.440;11.126;2022-07-06T03:43:04;15.04;68.69
71096;DHT22;58753;49.440;11.126;2022-07-06T03:45:29;14.97;68.89
71096;DHT22;58753;49.440;11.126;2022-07-06T03:47:56;14.90;69.01
71096;DHT22;58753;49.440;11.126;2022-07-06T03:50:21;14.87;69.37
71096;DHT22;58753;49.440;11.126;2022-07-06T03:52:46;14.86;69.71
71096;DHT22;58753;49.440;11.126;2022-07-06T03:55:12;14.87;69.67
71096;DHT22;58753;49.440;11.126;2022-07-06T03:57:38;14.82;69.78
71096;DHT22;58753;49.440;11.126;2022-07-06T04:00:06;14.80;69.81
71096;DHT22;58753;49.440;11.126;2022-07-06T04:02:32;14.83;70.05
71096;DHT22;58753;49.440;11.126;2022-07-06T04:04:58;14.83;69.87
71096;DHT22;58753;49.440;11.126;2022-07-06T04:07:24;14.84;69.83
71096;DHT22;58753;49.440;11.126;2022-07-06T04:09:50;14.90;69.99
71096;DHT22;58753;49.440;11.126;2022-07-06T04:12:15;14.96;70.02
71096;DHT22;58753;49.440;11.126;2022-07-06T04:14:41;15.04;70.27
71096;DHT22;58753;49.440;11.126;2022-07-06T04:17:06;15.13;70.16
71096;DHT22;58753;49.440;11.126;2022-07-06T04:19:50;15.24;70.13
71096;DHT22;58753;49.440;11.126;2022-07-06T04:22:16;15.33;69.77
71096;DHT22;58753;49.440;11.126;2022-07-06T04:24:41;15.44;69.71
71096;DHT22;58753;49.440;11.126;2022-07-06T04:27:07;15.54;69.17
71096;DHT22;58753;49.440;11.126;2022-07-06T04:29:32;15.67;68.94
71096;DHT22;58753;49.440;11.126;2022-07-06T04:31:57;15.79;68.83
71096;DHT22;58753;49.440;11.126;2022-07-06T04:34:23;15.87;68.44
71096;DHT22;58753;49.440;11.126;2022-07-06T04:36:48;15.96;68.31
71096;DHT22;58753;49.440;11.126;2022-07-06T04:39:14;16.05;68.06
71096;DHT22;58753;49.440;11.126;2022-07-06T04:41:39;16.15;67.84
71096;DHT22;58753;49.440;11.126;2022-07-06T04:44:04;16.20;67.73
71096;DHT22;58753;49.440;11.126;2022-07-06T04:46:30;16.30;67.39
71096;DHT22;58753;49.440;11.126;2022-07-06T04:48:55;16.36;66.30
71096;DHT22;58753;49.440;11.126;2022-07-06T04:51:20;16.50;65.44
71096;DHT22;58753;49.440;11.126;2022-07-06T04:53:46;16.60;64.30
71096;DHT22;58753;49.440;11.126;2022-07-06T04:56:11;16.69;63.25
71096;DHT22;58753;49.440;11.126;2022-07-06T04:58:37;16.77;62.17
71096;DHT22;58753;49.440;11.126;2022-07-06T05:01:02;16.83;61.94
71096;DHT22;58753;49.440;11.126;2022-07-06T05:03:28;16.90;61.55
71096;DHT22;58753;49.440;11.126;2022-07-06T05:05:53;16.94;61.14
71096;DHT22;58753;49.440;11.126;2022-07-06T05:08:18;16.95;60.84
71096;DHT22;58753;49.440;11.126;2022-07-06T05:10:44;17.00;60.41
71096;DHT22;58753;49.440;11.126;2022-07-06T05:13:09;17.03;60.35
71096;DHT22;58753;49.440;11.126;2022-07-06T05:15:35;17.07;59.74
71096;DHT22;58753;49.440;11.126;2022-07-06T05:18:00;17.13;59.88
71096;DHT22;58753;49.440;11.126;2022-07-06T05:20:25;17.14;59.85
71096;DHT22;58753;49.440;11.126;2022-07-06T05:22:51;17.17;59.86
71096;DHT22;58753;49.440;11.126;2022-07-06T05:25:16;17.20;59.69
71096;DHT22;58753;49.440;11.126;2022-07-06T05:27:42;17.21;59.48
71096;DHT22;58753;49.440;11.126;2022-07-06T05:30:07;17.22;59.49
71096;DHT22;58753;49.440;11.126;2022-07-06T05:32:33;17.24;59.56
71096;DHT22;58753;49.440;11.126;2022-07-06T05:48:57;17.39;58.74
71096;DHT22;58753;49.440;11.126;2022-07-06T05:51:41;17.45;58.77
71096;DHT22;58753;49.440;11.126;2022-07-06T05:54:06;17.42;58.74
71096;DHT22;58753;49.440;11.126;2022-07-06T05:56:32;17.51;59.30
71096;DHT22;58753;49.440;11.126;2022-07-06T06:01:38;17.49;58.85
71096;DHT22;58753;49.440;11.126;2022-07-06T06:04:04;17.52;58.94
71096;DHT22;58753;49.440;11.126;2022-07-06T06:06:29;17.62;58.45
71096;DHT22;58753;49.440;11.126;2022-07-06T06:08:56;17.71;58.06
71096;DHT22;58753;49.440;11.126;2022-07-06T06:11:22;17.72;57.52
71096;DHT22;58753;49.440;11.126;2022-07-06T06:16:12;17.74;58.24
71096;DHT22;58753;49.440;11.126;2022-07-06T06:21:41;17.89;57.62
71096;DHT22;58753;49.440;11.126;2022-07-06T06:24:07;17.92;57.50
71096;DHT22;58753;49.440;11.126;2022-07-06T06:26:32;17.96;57.72
71096;DHT22;58753;49.440;11.126;2022-07-06T06:28:58;18.05;57.67
71096;DHT22;58753;49.440;11.126;2022-07-06T06:31:23;18.07;58.05
71096;DHT22;58753;49.440;11.126;2022-07-06T06:37:18;18.22;56.52
71096;DHT22;58753;49.440;11.126;2022-07-06T06:39:44;18.27;56.46
71096;DHT22;58753;49.440;11.126;2022-07-06T06:50:28;18.56;55.03
71096;DHT22;58753;49.440;11.126;2022-07-06T07:00:10;18.85;54.39
71096;DHT22;58753;49.440;11.126;2022-07-06T07:06:05;18.97;53.66
71096;DHT22;58753;49.440;11.126;2022-07-06T07:08:30;19.02;53.69
71096;DHT22;58753;49.440;11.126;2022-07-06T07:10:56;19.11;53.58
71096;DHT22;58753;49.440;11.126;2022-07-06T07:21:03;19.31;52.07
71096;DHT22;58753;49.440;11.126;2022-07-06T07:23:28;19.36;52.08
71096;DHT22;58753;49.440;11.126;2022-07-06T07:25:53;19.41;51.99
71096;DHT22;58753;49.440;11.126;2022-07-06T07:28:19;19.51;51.68
71096;DHT22;58753;49.440;11.126;2022-07-06T07:33:09;19.65;51.80
71096;DHT22;58753;49.440;11.126;2022-07-06T07:35:42;19.63;51.37
71096;DHT22;58753;49.440;11.126;2022-07-06T07:38:07;19.66;51.13
71096;DHT22;58753;49.440;11.126;2022-07-06T07:40:32;19.66;51.13
71096;DHT22;58753;49.440;11.126;2022-07-06T07:42:59;19.69;50.97
71096;DHT22;58753;49.440;11.126;2022-07-06T07:45:24;19.72;51.06
71096;DHT22;58753;49.440;11.126;2022-07-06T07:51:21;19.74;50.28
71096;DHT22;58753;49.440;11.126;2022-07-06T07:53:46;19.76;50.45
71096;DHT22;58753;49.440;11.126;2022-07-06T07:56:12;19.79;50.20
71096;DHT22;58753;49.440;11.126;2022-07-06T07:58:37;19.79;50.07
71096;DHT22;58753;49.440;11.126;2022-07-06T08:01:03;19.76;49.83
71096;DHT22;58753;49.440;11.126;2022-07-06T08:03:29;19.80;49.92
71096;DHT22;58753;49.440;11.126;2022-07-06T08:05:55;19.84;49.93
71096;DHT22;58753;49.440;11.126;2022-07-06T08:08:20;19.96;48.86
71096;DHT22;58753;49.440;11.126;2022-07-06T08:10:46;19.97;49.02
71096;DHT22;58753;49.440;11.126;2022-07-06T08:13:11;19.98;48.78
71096;DHT22;58753;49.440;11.126;2022-07-06T08:15:39;20.04;48.70
71096;DHT22;58753;49.440;11.126;2022-07-06T08:18:05;20.06;48.48
71096;DHT22;58753;49.440;11.126;2022-07-06T08:20:30;20.14;47.75
71096;DHT22;58753;49.440;11.126;2022-07-06T08:22:56;20.27;47.64
71096;DHT22;58753;49.440;11.126;2022-07-06T08:25:21;20.40;46.46
71096;DHT22;58753;49.440;11.126;2022-07-06T08:30:10;20.37;46.17
71096;DHT22;58753;49.440;11.126;2022-07-06T08:32:40;20.41;46.46
71096;DHT22;58753;49.440;11.126;2022-07-06T08:35:06;20.41;45.81
71096;DHT22;58753;49.440;11.126;2022-07-06T08:37:32;20.44;45.77
71096;DHT22;58753;49.440;11.126;2022-07-06T08:40:00;20.45;45.27
71096;DHT22;58753;49.440;11.126;2022-07-06T08:42:33;20.44;45.13
71096;DHT22;58753;49.440;11.126;2022-07-06T08:44:59;20.54;45.21
71096;DHT22;58753;49.440;11.126;2022-07-06T08:47:26;20.58;45.16
71096;DHT22;58753;49.440;11.126;2022-07-06T08:49:53;20.78;44.20
71096;DHT22;58753;49.440;11.126;2022-07-06T08:52:18;20.87;43.89
71096;DHT22;58753;49.440;11.126;2022-07-06T08:54:44;20.85;43.64
71096;DHT22;58753;49.440;11.126;2022-07-06T08:57:12;20.87;43.36
71096;DHT22;58753;49.440;11.126;2022-07-06T08:59:39;20.96;43.57
71096;DHT22;58753;49.440;11.126;2022-07-06T09:02:05;21.10;42.81
71096;DHT22;58753;49.440;11.126;2022-07-06T09:04:32;21.13;42.67
71096;DHT22;58753;49.440;11.126;2022-07-06T09:06:58;21.23;42.98
71096;DHT22;58753;49.440;11.126;2022-07-06T09:09:35;21.39;43.06
71096;DHT22;58753;49.440;11.126;2022-07-06T09:12:11;21.52;42.88
71096;DHT22;58753;49.440;11.126;2022-07-06T09:14:37;21.60;41.63
71096;DHT22;58753;49.440;11.126;2022-07-06T09:17:06;21.59;42.13
71096;DHT22;58753;49.440;11.126;2022-07-06T09:19:33;21.62;42.52
71096;DHT22;58753;49.440;11.126;2022-07-06T09:22:02;21.54;42.30
71096;DHT22;58753;49.440;11.126;2022-07-06T09:24:30;21.63;42.77
71096;DHT22;58753;49.440;11.126;2022-07-06T09:26:57;21.71;41.92
71096;DHT22;58753;49.440;11.126;2022-07-06T09:29:32;21.63;41.93
71096;DHT22;58753;49.440;11.126;2022-07-06T09:32:03;21.64;42.63
71096;DHT22;58753;49.440;11.126;2022-07-06T09:34:41;21.77;42.64
71096;DHT22;58753;49.440;11.126;2022-07-06T09:37:13;21.80;41.69
71096;DHT22;58753;49.440;11.126;2022-07-06T09:39:45;21.76;41.49
71096;DHT22;58753;49.440;11.126;2022-07-06T09:42:13;21.71;42.01
71096;DHT22;58753;49.440;11.126;2022-07-06T09:44:40;21.74;41.82
71096;DHT22;58753;49.440;11.126;2022-07-06T09:47:08;21.84;42.11
71096;DHT22;58753;49.440;11.126;2022-07-06T09:49:37;21.96;42.12
71096;DHT22;58753;49.440;11.126;2022-07-06T09:52:06;22.11;41.86
71096;DHT22;58753;49.440;11.126;2022-07-06T09:54:35;22.25;41.43
71096;DHT22;58753;49.440;11.126;2022-07-06T09:57:02;22.27;40.21
71096;DHT22;58753;49.440;11.126;2022-07-06T09:59:30;22.21;40.12
71096;DHT22;58753;49.440;11.126;2022-07-06T10:01:57;22.33;40.02
71096;DHT22;58753;49.440;11.126;2022-07-06T10:04:26;22.45;40.51
71096;DHT22;58753;49.440;11.126;2022-07-06T10:06:56;22.69;38.82
71096;DHT22;58753;49.440;11.126;2022-07-06T10:09:27;22.82;39.40
71096;DHT22;58753;49.440;11.126;2022-07-06T10:11:55;22.86;39.39
71096;DHT22;58753;49.440;11.126;2022-07-06T10:14:22;23.02;39.01
71096;DHT22;58753;49.440;11.126;2022-07-06T10:16:48;23.10;39.07
71096;DHT22;58753;49.440;11.126;2022-07-06T10:19:20;23.10;38.39
71096;DHT22;58753;49.440;11.126;2022-07-06T10:21:49;22.95;38.53
71096;DHT22;58753;49.440;11.126;2022-07-06T10:24:19;22.78;38.24
71096;DHT22;58753;49.440;11.126;2022-07-06T10:26:45;22.65;38.90
71096;DHT22;58753;49.440;11.126;2022-07-06T10:29:14;22.56;39.16
71096;DHT22;58753;49.440;11.126;2022-07-06T10:31:42;22.71;39.38
71096;DHT22;58753;49.440;11.126;2022-07-06T10:34:11;22.86;39.37
71096;DHT22;58753;49.440;11.126;2022-07-06T10:36:38;22.95;38.87
71096;DHT22;58753;49.440;11.126;2022-07-06T10:39:04;23.10;38.68
71096;DHT22;58753;49.440;11.126;2022-07-06T10:41:53;23.13;38.34
71096;DHT22;58753;49.440;11.126;2022-07-06T10:44:23;23.26;37.83
71096;DHT22;58753;49.440;11.126;2022-07-06T10:47:01;23.29;37.35
71096;DHT22;58753;49.440;11.126;2022-07-06T10:49:29;23.05;37.58
71096;DHT22;58753;49.440;11.126;2022-07-06T10:51:57;22.79;38.37
71096;DHT22;58753;49.440;11.126;2022-07-06T10:54:23;22.66;38.21
71096;DHT22;58753;49.440;11.126;2022-07-06T10:56:58;22.59;38.00
71096;DHT22;58753;49.440;11.126;2022-07-06T10:59:36;22.68;38.89
71096;DHT22;58753;49.440;11.126;2022-07-06T11:04:43;23.33;38.12
71096;DHT22;58753;49.440;11.126;2022-07-06T11:07:13;23.67;36.71
71096;DHT22;58753;49.440;11.126;2022-07-06T11:09:42;23.80;36.63
71096;DHT22;58753;49.440;11.126;2022-07-06T11:12:20;23.66;36.59
71096;DHT22;58753;49.440;11.126;2022-07-06T11:14:48;23.56;36.25
71096;DHT22;58753;49.440;11.126;2022-07-06T11:17:14;23.60;36.81
71096;DHT22;58753;49.440;11.126;2022-07-06T11:19:57;23.39;36.69
71096;DHT22;58753;49.440;11.126;2022-07-06T11:22:23;23.27;37.45
71096;DHT22;58753;49.440;11.126;2022-07-06T11:24:52;23.10;37.58
71096;DHT22;58753;49.440;11.126;2022-07-06T11:27:18;22.89;37.80
71096;DHT22;58753;49.440;11.126;2022-07-06T11:29:46;22.78;38.71
71096;DHT22;58753;49.440;11.126;2022-07-06T11:32:14;22.76;38.89
71096;DHT22;58753;49.440;11.126;2022-07-06T11:34:44;22.76;38.93
71096;DHT22;58753;49.440;11.126;2022-07-06T11:37:11;22.79;38.06
71096;DHT22;58753;49.440;11.126;2022-07-06T11:39:42;23.00;37.81
71096;DHT22;58753;49.440;11.126;2022-07-06T11:42:09;23.19;37.97
71096;DHT22;58753;49.440;11.126;2022-07-06T11:44:39;23.16;37.67
71096;DHT22;58753;49.440;11.126;2022-07-06T11:47:08;23.27;37.48
71096;DHT22;58753;49.440;11.126;2022-07-06T11:49:40;23.26;37.19
71096;DHT22;58753;49.440;11.126;2022-07-06T11:52:13;23.23;36.90
71096;DHT22;58753;49.440;11.126;2022-07-06T11:54:41;23.53;37.15
71096;DHT22;58753;49.440;11.126;2022-07-06T11:57:09;23.96;37.24
71096;DHT22;58753;49.440;11.126;2022-07-06T11:59:38;24.42;36.63
71096;DHT22;58753;49.440;11.126;2022-07-06T12:02:11;24.47;35.24
71096;DHT22;58753;49.440;11.126;2022-07-06T12:04:41;24.24;34.72
71096;DHT22;58753;49.440;11.126;2022-07-06T12:07:10;23.88;33.80
71096;DHT22;58753;49.440;11.126;2022-07-06T12:09:44;23.67;35.02
71096;DHT22;58753;49.440;11.126;2022-07-06T12:12:13;24.11;35.37
71096;DHT22;58753;49.440;11.126;2022-07-06T12:14:40;24.53;34.54
71096;DHT22;58753;49.440;11.126;2022-07-06T12:19:36;25.13;32.83
71096;DHT22;58753;49.440;11.126;2022-07-06T12:22:05;24.72;31.84
71096;DHT22;58753;49.440;11.126;2022-07-06T12:24:34;24.52;32.45
71096;DHT22;58753;49.440;11.126;2022-07-06T12:29:38;24.47;32.19
71096;DHT22;58753;49.440;11.126;2022-07-06T12:32:13;24.32;33.11
71096;DHT22;58753;49.440;11.126;2022-07-06T12:34:41;24.62;33.03
71096;DHT22;58753;49.440;11.126;2022-07-06T12:37:09;24.86;31.96
71096;DHT22;58753;49.440;11.126;2022-07-06T12:39:47;25.24;32.83
71096;DHT22;58753;49.440;11.126;2022-07-06T12:42:16;25.40;32.14
71096;DHT22;58753;49.440;11.126;2022-07-06T12:44:47;25.46;32.18
71096;DHT22;58753;49.440;11.126;2022-07-06T12:47:17;25.20;31.29
71096;DHT22;58753;49.440;11.126;2022-07-06T12:49:43;25.09;31.10
71096;DHT22;58753;49.440;11.126;2022-07-06T12:52:13;24.75;30.91
71096;DHT22;58753;49.440;11.126;2022-07-06T12:54:43;24.96;32.65
71096;DHT22;58753;49.440;11.126;2022-07-06T12:57:16;25.13;32.29
71096;DHT22;58753;49.440;11.126;2022-07-06T12:59:56;25.50;32.54
71096;DHT22;58753;49.440;11.126;2022-07-06T13:02:26;25.82;31.05
71096;DHT22;58753;49.440;11.126;2022-07-06T13:05:05;26.04;31.32
71096;DHT22;58753;49.440;11.126;2022-07-06T13:07:36;26.18;31.50
71096;DHT22;58753;49.440;11.126;2022-07-06T13:10:07;26.28;30.88
71096;DHT22;58753;49.440;11.126;2022-07-06T13:12:34;26.31;30.72
71096;DHT22;58753;49.440;11.126;2022-07-06T13:15:02;26.42;29.60
71096;DHT22;58753;49.440;11.126;2022-07-06T13:17:30;26.22;28.93
71096;DHT22;58753;49.440;11.126;2022-07-06T13:19:56;26.33;28.92
71096;DHT22;58753;49.440;11.126;2022-07-06T13:22:25;26.05;28.41
71096;DHT22;58753;49.440;11.126;2022-07-06T13:24:52;25.78;28.64
71096;DHT22;58753;49.440;11.126;2022-07-06T13:27:18;25.48;29.55
71096;DHT22;58753;49.440;11.126;2022-07-06T13:29:44;25.51;30.66
71096;DHT22;58753;49.440;11.126;2022-07-06T13:32:12;25.61;30.09
71096;DHT22;58753;49.440;11.126;2022-07-06T13:34:37;25.82;30.79
71096;DHT22;58753;49.440;11.126;2022-07-06T13:37:04;25.95;30.53
71096;DHT22;58753;49.440;11.126;2022-07-06T13:39:37;26.02;30.24
71096;DHT22;58753;49.440;11.126;2022-07-06T13:42:03;25.99;30.85
71096;DHT22;58753;49.440;11.126;2022-07-06T13:44:28;26.06;30.04
71096;DHT22;58753;49.440;11.126;2022-07-06T13:46:59;26.26;30.16
71096;DHT22;58753;49.440;11.126;2022-07-06T13:49:31;26.46;29.43
71096;DHT22;58753;49.440;11.126;2022-07-06T13:51:58;26.62;29.88
71096;DHT22;58753;49.440;11.126;2022-07-06T13:54:29;26.66;29.26
71096;DHT22;58753;49.440;11.126;2022-07-06T13:56:54;26.73;29.52
71096;DHT22;58753;49.440;11.126;2022-07-06T13:59:20;26.80;28.49
71096;DHT22;58753;49.440;11.126;2022-07-06T14:01:48;26.78;28.94
71096;DHT22;58753;49.440;11.126;2022-07-06T14:04:13;26.73;29.05
71096;DHT22;58753;49.440;11.126;2022-07-06T14:06:41;26.60;28.31
71096;DHT22;58753;49.440;11.126;2022-07-06T14:09:07;26.15;29.37
71096;DHT22;58753;49.440;11.126;2022-07-06T14:11:33;26.25;30.33
71096;DHT22;58753;49.440;11.126;2022-07-06T14:13:58;25.82;29.38
71096;DHT22;58753;49.440;11.126;2022-07-06T14:16:26;25.41;30.14
71096;DHT22;58753;49.440;11.126;2022-07-06T14:18:52;25.10;30.17
71096;DHT22;58753;49.440;11.126;2022-07-06T14:21:19;25.00;31.34
71096;DHT22;58753;49.440;11.126;2022-07-06T14:23:47;25.26;31.77
71096;DHT22;58753;49.440;11.126;2022-07-06T14:26:14;25.47;31.73
71096;DHT22;58753;49.440;11.126;2022-07-06T14:28:40;25.26;30.99
71096;DHT22;58753;49.440;11.126;2022-07-06T14:31:06;25.53;32.06
71096;DHT22;58753;49.440;11.126;2022-07-06T14:33:31;25.81;30.38
71096;DHT22;58753;49.440;11.126;2022-07-06T14:35:58;25.95;30.55
71096;DHT22;58753;49.440;11.126;2022-07-06T14:38:26;26.21;29.33
71096;DHT22;58753;49.440;11.126;2022-07-06T14:40:56;26.08;28.40
71096;DHT22;58753;49.440;11.126;2022-07-06T14:43:22;26.08;29.66
71096;DHT22;58753;49.440;11.126;2022-07-06T14:45:49;26.06;29.41
71096;DHT22;58753;49.440;11.126;2022-07-06T14:48:15;26.02;29.66
71096;DHT22;58753;49.440;11.126;2022-07-06T14:50:41;26.08;28.89
71096;DHT22;58753;49.440;11.126;2022-07-06T14:53:09;26.11;28.58
71096;DHT22;58753;49.440;11.126;2022-07-06T14:55:37;26.08;28.69
71096;DHT22;58753;49.440;11.126;2022-07-06T14:58:02;26.21;28.06
71096;DHT22;58753;49.440;11.126;2022-07-06T15:00:28;26.24;28.69
71096;DHT22;58753;49.440;11.126;2022-07-06T15:02:55;26.31;28.61
71096;DHT22;58753;49.440;11.126;2022-07-06T15:05:23;26.09;28.06
71096;DHT22;58753;49.440;11.126;2022-07-06T15:07:49;25.81;28.67
71096;DHT22;58753;49.440;11.126;2022-07-06T15:10:17;25.97;28.83
71096;DHT22;58753;49.440;11.126;2022-07-06T15:12:44;26.11;28.35
71096;DHT22;58753;49.440;11.126;2022-07-06T15:15:10;26.05;28.30
71096;DHT22;58753;49.440;11.126;2022-07-06T15:17:38;26.17;28.60
71096;DHT22;58753;49.440;11.126;2022-07-06T15:20:04;26.26;28.05
71096;DHT22;58753;49.440;11.126;2022-07-06T15:22:30;26.40;28.17
71096;DHT22;58753;49.440;11.126;2022-07-06T15:24:56;26.40;27.54
71096;DHT22;58753;49.440;11.126;2022-07-06T15:27:23;26.33;28.20
71096;DHT22;58753;49.440;11.126;2022-07-06T15:29:49;26.35;27.54
71096;DHT22;58753;49.440;11.126;2022-07-06T15:32:16;26.35;28.05
71096;DHT22;58753;49.440;11.126;2022-07-06T15:34:44;26.38;27.69
71096;DHT22;58753;49.440;11.126;2022-07-06T15:37:14;26.48;27.23
71096;DHT22;58753;49.440;11.126;2022-07-06T15:39:46;26.46;27.61
71096;DHT22;58753;49.440;11.126;2022-07-06T15:42:14;26.49;27.50
71096;DHT22;58753;49.440;11.126;2022-07-06T15:44:39;26.50;27.61
71096;DHT22;58753;49.440;11.126;2022-07-06T15:47:06;26.50;27.41
71096;DHT22;58753;49.440;11.126;2022-07-06T15:49:34;26.57;27.19
71096;DHT22;58753;49.440;11.126;2022-07-06T15:51:59;26.60;27.15
71096;DHT22;58753;49.440;11.126;2022-07-06T15:54:27;26.64;27.10
71096;DHT22;58753;49.440;11.126;2022-07-06T15:56:58;26.63;26.84
71096;DHT22;58753;49.440;11.126;2022-07-06T15:59:24;26.24;27.08
71096;DHT22;58753;49.440;11.126;2022-07-06T16:01:49;26.33;27.36
71096;DHT22;58753;49.440;11.126;2022-07-06T16:04:15;26.46;26.31
71096;DHT22;58753;49.440;11.126;2022-07-06T16:06:40;26.48;26.29
71096;DHT22;58753;49.440;11.126;2022-07-06T16:09:08;26.45;26.43
71096;DHT22;58753;49.440;11.126;2022-07-06T16:11:36;26.40;25.81
71096;DHT22;58753;49.440;11.126;2022-07-06T16:14:08;26.36;25.84
71096;DHT22;58753;49.440;11.126;2022-07-06T16:16:34;26.32;26.42
71096;DHT22;58753;49.440;11.126;2022-07-06T16:19:05;26.28;25.93
71096;DHT22;58753;49.440;11.126;2022-07-06T16:21:33;26.28;26.28
71096;DHT22;58753;49.440;11.126;2022-07-06T16:24:01;26.24;26.27
71096;DHT22;58753;49.440;11.126;2022-07-06T16:26:26;26.26;26.50
71096;DHT22;58753;49.440;11.126;2022-07-06T16:28:52;26.36;27.01
71096;DHT22;58753;49.440;11.126;2022-07-06T16:31:17;26.57;26.89
71096;DHT22;58753;49.440;11.126;2022-07-06T16:33:45;26.70;25.83
71096;DHT22;58753;49.440;11.126;2022-07-06T16:36:17;26.57;25.75
71096;DHT22;58753;49.440;11.126;2022-07-06T16:38:43;26.52;25.41
71096;DHT22;58753;49.440;11.126;2022-07-06T16:41:11;26.42;25.18
71096;DHT22;58753;49.440;11.126;2022-07-06T16:43:39;26.36;25.25
71096;DHT22;58753;49.440;11.126;2022-07-06T16:46:07;26.29;24.49
71096;DHT22;58753;49.440;11.126;2022-07-06T16:48:32;26.18;25.06
71096;DHT22;58753;49.440;11.126;2022-07-06T16:51:00;26.15;25.48
71096;DHT22;58753;49.440;11.126;2022-07-06T16:53:27;26.06;25.17
71096;DHT22;58753;49.440;11.126;2022-07-06T16:55:53;25.89;25.59
71096;DHT22;58753;49.440;11.126;2022-07-06T16:58:19;25.81;26.07
71096;DHT22;58753;49.440;11.126;2022-07-06T17:00:46;25.75;26.02
71096;DHT22;58753;49.440;11.126;2022-07-06T17:03:17;25.84;26.19
71096;DHT22;58753;49.440;11.126;2022-07-06T17:05:43;25.80;25.90
71096;DHT22;58753;49.440;11.126;2022-07-06T17:08:11;25.71;25.79
71096;DHT22;58753;49.440;11.126;2022-07-06T17:10:37;25.50;26.12